KSVH/SVH METAR and TAF weather

Enter ICAO airport designator
Station Type Date Time Source
KSVH METAR 2022/05/25 00:55 UTC NOAA

KSVH 250055Z AUTO 07009KT 10SM SCT030 17/14 A3020 RMK AO2 T01720138


Station Type Date Time Source
KSVH Decoded METAR 2022/05/25 00:55 UTC NOAA

Statesville, Statesville Municipal Airport, NC, United States (KSVH) 35-45-55N 080-57-24W
May 24, 2022 - 08:55 PM EDT / 2022.05.25 0055 UTC
Wind: from the ENE (070 degrees) at 10 MPH (9 KT):0
Visibility: 10 mile(s):0
Sky conditions: partly cloudy
Temperature: 63.0 F (17.2 C)
Dew Point: 56.8 F (13.8 C)
Relative Humidity: 80%
Pressure (altimeter): 30.2 in. Hg (1022 hPa)
ob: KSVH 250055Z AUTO 07009KT 10SM SCT030 17/14 A3020 RMK AO2 T01720138
cycle: 1

Station Type Date Time Source
KSVH TAF UTC NOAA

Error!

Example: see airport list